sensor_id;sensor_type;location;lat;lon;timestamp;P1;durP1;ratioP1;P2;durP2;ratioP2
1977;SDS011;989;53.016;8.346;2023-03-23T00:01:07;26.07;;;17.30;;
1977;SDS011;989;53.016;8.346;2023-03-23T00:03:38;25.80;;;16.90;;
1977;SDS011;989;53.016;8.346;2023-03-23T00:06:04;22.30;;;16.17;;
1977;SDS011;989;53.016;8.346;2023-03-23T00:08:35;23.73;;;16.70;;
1977;SDS011;989;53.016;8.346;2023-03-23T00:11:14;31.97;;;16.63;;
1977;SDS011;989;53.016;8.346;2023-03-23T00:13:41;26.57;;;16.20;;
1977;SDS011;989;53.016;8.346;2023-03-23T00:16:09;24.70;;;17.83;;
1977;SDS011;989;53.016;8.346;2023-03-23T00:18:49;22.67;;;15.63;;
1977;SDS011;989;53.016;8.346;2023-03-23T00:21:19;25.77;;;15.53;;
1977;SDS011;989;53.016;8.346;2023-03-23T00:23:45;23.37;;;15.93;;
1977;SDS011;989;53.016;8.346;2023-03-23T00:26:11;30.30;;;19.30;;
1977;SDS011;989;53.016;8.346;2023-03-23T00:28:37;27.00;;;16.47;;
1977;SDS011;989;53.016;8.346;2023-03-23T00:31:05;24.03;;;15.73;;
1977;SDS011;989;53.016;8.346;2023-03-23T00:33:32;27.30;;;16.20;;
1977;SDS011;989;53.016;8.346;2023-03-23T00:36:03;26.60;;;18.33;;
1977;SDS011;989;53.016;8.346;2023-03-23T00:38:29;29.40;;;16.63;;
1977;SDS011;989;53.016;8.346;2023-03-23T00:40:55;25.27;;;14.87;;
1977;SDS011;989;53.016;8.346;2023-03-23T00:43:22;26.57;;;16.53;;
1977;SDS011;989;53.016;8.346;2023-03-23T00:45:49;26.07;;;17.70;;
1977;SDS011;989;53.016;8.346;2023-03-23T00:48:17;27.70;;;15.43;;
1977;SDS011;989;53.016;8.346;2023-03-23T00:50:43;27.47;;;17.60;;
1977;SDS011;989;53.016;8.346;2023-03-23T00:53:09;26.63;;;17.20;;
1977;SDS011;989;53.016;8.346;2023-03-23T00:55:35;29.10;;;16.87;;
1977;SDS011;989;53.016;8.346;2023-03-23T00:58:01;28.13;;;16.73;;
1977;SDS011;989;53.016;8.346;2023-03-23T01:00:27;24.30;;;15.80;;
1977;SDS011;989;53.016;8.346;2023-03-23T01:02:53;23.20;;;14.90;;
1977;SDS011;989;53.016;8.346;2023-03-23T01:05:19;32.67;;;16.70;;
1977;SDS011;989;53.016;8.346;2023-03-23T01:07:46;28.47;;;16.00;;
1977;SDS011;989;53.016;8.346;2023-03-23T01:10:13;25.70;;;15.20;;
1977;SDS011;989;53.016;8.346;2023-03-23T01:12:45;23.73;;;15.43;;
1977;SDS011;989;53.016;8.346;2023-03-23T01:15:13;26.73;;;15.37;;
1977;SDS011;989;53.016;8.346;2023-03-23T01:17:40;24.67;;;14.93;;
1977;SDS011;989;53.016;8.346;2023-03-23T01:20:06;21.00;;;13.30;;
1977;SDS011;989;53.016;8.346;2023-03-23T01:22:32;26.70;;;15.00;;
1977;SDS011;989;53.016;8.346;2023-03-23T01:24:58;23.03;;;14.10;;
1977;SDS011;989;53.016;8.346;2023-03-23T01:27:24;23.33;;;13.53;;
1977;SDS011;989;53.016;8.346;2023-03-23T01:29:50;22.97;;;13.43;;
1977;SDS011;989;53.016;8.346;2023-03-23T01:32:16;22.40;;;14.53;;
1977;SDS011;989;53.016;8.346;2023-03-23T01:34:42;18.67;;;12.53;;
1977;SDS011;989;53.016;8.346;2023-03-23T01:37:08;22.30;;;14.83;;
1977;SDS011;989;53.016;8.346;2023-03-23T01:39:37;19.77;;;13.27;;
1977;SDS011;989;53.016;8.346;2023-03-23T01:42:03;20.03;;;14.17;;
1977;SDS011;989;53.016;8.346;2023-03-23T01:46:56;21.50;;;12.97;;
1977;SDS011;989;53.016;8.346;2023-03-23T01:49:26;31.10;;;12.43;;
1977;SDS011;989;53.016;8.346;2023-03-23T01:51:57;19.80;;;13.40;;
1977;SDS011;989;53.016;8.346;2023-03-23T01:54:23;23.40;;;14.40;;
1977;SDS011;989;53.016;8.346;2023-03-23T01:57:04;21.27;;;14.33;;
1977;SDS011;989;53.016;8.346;2023-03-23T01:59:32;22.47;;;13.00;;
1977;SDS011;989;53.016;8.346;2023-03-23T02:01:59;22.30;;;12.70;;
1977;SDS011;989;53.016;8.346;2023-03-23T02:04:25;26.50;;;15.03;;
1977;SDS011;989;53.016;8.346;2023-03-23T02:06:52;22.53;;;12.53;;
1977;SDS011;989;53.016;8.346;2023-03-23T02:09:19;24.27;;;12.37;;
1977;SDS011;989;53.016;8.346;2023-03-23T02:11:46;20.53;;;12.30;;
1977;SDS011;989;53.016;8.346;2023-03-23T02:14:13;25.20;;;12.70;;
1977;SDS011;989;53.016;8.346;2023-03-23T02:27:14;18.40;;;11.40;;
1977;SDS011;989;53.016;8.346;2023-03-23T02:29:48;21.00;;;11.30;;
1977;SDS011;989;53.016;8.346;2023-03-23T02:32:21;17.37;;;11.90;;
1977;SDS011;989;53.016;8.346;2023-03-23T02:34:55;22.27;;;11.40;;
1977;SDS011;989;53.016;8.346;2023-03-23T02:39:52;12.30;;;8.93;;
1977;SDS011;989;53.016;8.346;2023-03-23T02:42:23;22.07;;;12.27;;
1977;SDS011;989;53.016;8.346;2023-03-23T02:44:51;19.67;;;11.90;;
1977;SDS011;989;53.016;8.346;2023-03-23T02:47:23;16.83;;;11.83;;
1977;SDS011;989;53.016;8.346;2023-03-23T02:49:51;21.30;;;10.47;;
1977;SDS011;989;53.016;8.346;2023-03-23T02:52:19;19.50;;;10.33;;
1977;SDS011;989;53.016;8.346;2023-03-23T02:54:47;23.23;;;10.53;;
1977;SDS011;989;53.016;8.346;2023-03-23T02:57:14;20.80;;;10.77;;
1977;SDS011;989;53.016;8.346;2023-03-23T02:59:41;16.53;;;9.50;;
1977;SDS011;989;53.016;8.346;2023-03-23T03:04:40;18.43;;;11.40;;
1977;SDS011;989;53.016;8.346;2023-03-23T03:07:10;16.73;;;11.00;;
1977;SDS011;989;53.016;8.346;2023-03-23T03:09:52;17.13;;;9.80;;
1977;SDS011;989;53.016;8.346;2023-03-23T03:12:30;23.20;;;10.40;;
1977;SDS011;989;53.016;8.346;2023-03-23T03:15:02;16.73;;;10.57;;
1977;SDS011;989;53.016;8.346;2023-03-23T03:17:32;16.03;;;10.50;;
1977;SDS011;989;53.016;8.346;2023-03-23T03:20:02;21.27;;;10.20;;
1977;SDS011;989;53.016;8.346;2023-03-23T03:22:32;15.43;;;10.47;;
1977;SDS011;989;53.016;8.346;2023-03-23T03:25:02;15.13;;;9.70;;
1977;SDS011;989;53.016;8.346;2023-03-23T03:27:28;19.10;;;11.03;;
1977;SDS011;989;53.016;8.346;2023-03-23T03:29:57;26.60;;;10.80;;
1977;SDS011;989;53.016;8.346;2023-03-23T03:32:37;15.97;;;10.97;;
1977;SDS011;989;53.016;8.346;2023-03-23T03:35:05;15.07;;;10.03;;
1977;SDS011;989;53.016;8.346;2023-03-23T03:37:34;18.40;;;9.80;;
1977;SDS011;989;53.016;8.346;2023-03-23T03:40:03;13.67;;;10.20;;
1977;SDS011;989;53.016;8.346;2023-03-23T03:42:33;17.60;;;11.17;;
1977;SDS011;989;53.016;8.346;2023-03-23T03:44:59;18.27;;;10.10;;
1977;SDS011;989;53.016;8.346;2023-03-23T03:47:25;15.43;;;10.63;;
1977;SDS011;989;53.016;8.346;2023-03-23T03:49:51;19.20;;;10.37;;
1977;SDS011;989;53.016;8.346;2023-03-23T03:52:17;16.20;;;9.00;;
1977;SDS011;989;53.016;8.346;2023-03-23T03:54:43;14.17;;;10.13;;
1977;SDS011;989;53.016;8.346;2023-03-23T03:57:09;13.83;;;10.60;;
1977;SDS011;989;53.016;8.346;2023-03-23T03:59:36;18.70;;;11.47;;
1977;SDS011;989;53.016;8.346;2023-03-23T04:02:02;13.20;;;9.80;;
1977;SDS011;989;53.016;8.346;2023-03-23T04:04:28;15.37;;;9.67;;
1977;SDS011;989;53.016;8.346;2023-03-23T04:06:54;18.00;;;12.37;;
1977;SDS011;989;53.016;8.346;2023-03-23T04:09:22;21.10;;;10.77;;
1977;SDS011;989;53.016;8.346;2023-03-23T04:11:48;15.97;;;10.13;;
1977;SDS011;989;53.016;8.346;2023-03-23T04:14:14;17.93;;;11.37;;
1977;SDS011;989;53.016;8.346;2023-03-23T04:16:40;23.40;;;11.03;;
1977;SDS011;989;53.016;8.346;2023-03-23T04:19:06;27.67;;;9.90;;
1977;SDS011;989;53.016;8.346;2023-03-23T04:21:33;21.60;;;9.60;;
1977;SDS011;989;53.016;8.346;2023-03-23T04:23:59;14.83;;;9.57;;
1977;SDS011;989;53.016;8.346;2023-03-23T04:26:26;15.00;;;9.60;;
1977;SDS011;989;53.016;8.346;2023-03-23T04:28:54;17.33;;;8.93;;
1977;SDS011;989;53.016;8.346;2023-03-23T04:31:20;14.83;;;9.10;;
1977;SDS011;989;53.016;8.346;2023-03-23T04:33:49;13.00;;;8.90;;
1977;SDS011;989;53.016;8.346;2023-03-23T04:36:17;14.67;;;9.30;;
1977;SDS011;989;53.016;8.346;2023-03-23T04:38:43;13.10;;;8.37;;
1977;SDS011;989;53.016;8.346;2023-03-23T04:41:09;12.10;;;7.50;;
1977;SDS011;989;53.016;8.346;2023-03-23T04:43:35;12.33;;;7.97;;
1977;SDS011;989;53.016;8.346;2023-03-23T04:46:06;10.70;;;6.90;;
1977;SDS011;989;53.016;8.346;2023-03-23T04:48:34;15.20;;;6.80;;
1977;SDS011;989;53.016;8.346;2023-03-23T04:51:01;12.60;;;7.50;;
1977;SDS011;989;53.016;8.346;2023-03-23T04:53:29;7.83;;;5.60;;
1977;SDS011;989;53.016;8.346;2023-03-23T04:55:55;20.30;;;8.33;;
1977;SDS011;989;53.016;8.346;2023-03-23T04:58:21;13.23;;;6.77;;
1977;SDS011;989;53.016;8.346;2023-03-23T05:00:49;14.53;;;7.90;;
1977;SDS011;989;53.016;8.346;2023-03-23T05:03:19;15.00;;;8.00;;
1977;SDS011;989;53.016;8.346;2023-03-23T05:05:45;13.43;;;7.67;;
1977;SDS011;989;53.016;8.346;2023-03-23T05:08:16;8.53;;;6.73;;
1977;SDS011;989;53.016;8.346;2023-03-23T05:10:49;17.83;;;7.50;;
1977;SDS011;989;53.016;8.346;2023-03-23T05:13:15;13.60;;;8.00;;
1977;SDS011;989;53.016;8.346;2023-03-23T05:15:41;13.20;;;6.50;;
1977;SDS011;989;53.016;8.346;2023-03-23T05:18:07;11.77;;;5.70;;
1977;SDS011;989;53.016;8.346;2023-03-23T05:20:34;11.10;;;6.10;;
1977;SDS011;989;53.016;8.346;2023-03-23T05:23:00;10.83;;;5.40;;
1977;SDS011;989;53.016;8.346;2023-03-23T05:25:26;8.23;;;6.40;;
1977;SDS011;989;53.016;8.346;2023-03-23T05:27:52;12.33;;;7.27;;
1977;SDS011;989;53.016;8.346;2023-03-23T05:30:19;12.13;;;7.30;;
1977;SDS011;989;53.016;8.346;2023-03-23T05:32:46;10.60;;;6.63;;
1977;SDS011;989;53.016;8.346;2023-03-23T05:35:15;13.17;;;6.90;;
1977;SDS011;989;53.016;8.346;2023-03-23T05:37:42;9.50;;;6.93;;
1977;SDS011;989;53.016;8.346;2023-03-23T05:40:09;9.47;;;6.03;;
1977;SDS011;989;53.016;8.346;2023-03-23T05:42:36;12.27;;;7.40;;
1977;SDS011;989;53.016;8.346;2023-03-23T05:45:05;11.00;;;6.73;;
1977;SDS011;989;53.016;8.346;2023-03-23T05:47:31;9.30;;;6.60;;
1977;SDS011;989;53.016;8.346;2023-03-23T05:49:58;11.97;;;7.37;;
1977;SDS011;989;53.016;8.346;2023-03-23T05:52:25;11.47;;;6.47;;
1977;SDS011;989;53.016;8.346;2023-03-23T05:54:51;11.63;;;6.40;;
1977;SDS011;989;53.016;8.346;2023-03-23T05:57:17;10.97;;;6.30;;
1977;SDS011;989;53.016;8.346;2023-03-23T05:59:46;14.10;;;6.80;;
1977;SDS011;989;53.016;8.346;2023-03-23T06:02:13;11.20;;;6.30;;
1977;SDS011;989;53.016;8.346;2023-03-23T06:04:39;12.40;;;6.00;;
1977;SDS011;989;53.016;8.346;2023-03-23T06:07:06;11.53;;;7.50;;
1977;SDS011;989;53.016;8.346;2023-03-23T06:09:33;9.93;;;5.30;;
1977;SDS011;989;53.016;8.346;2023-03-23T06:11:59;13.20;;;6.30;;
1977;SDS011;989;53.016;8.346;2023-03-23T06:14:25;10.60;;;5.83;;
1977;SDS011;989;53.016;8.346;2023-03-23T06:16:51;9.57;;;5.60;;
1977;SDS011;989;53.016;8.346;2023-03-23T06:19:17;8.90;;;5.90;;
1977;SDS011;989;53.016;8.346;2023-03-23T06:21:43;14.57;;;6.00;;
1977;SDS011;989;53.016;8.346;2023-03-23T06:24:09;13.90;;;6.87;;
1977;SDS011;989;53.016;8.346;2023-03-23T06:26:37;9.40;;;5.40;;
1977;SDS011;989;53.016;8.346;2023-03-23T06:29:03;9.40;;;5.17;;
1977;SDS011;989;53.016;8.346;2023-03-23T06:31:36;9.63;;;5.47;;
1977;SDS011;989;53.016;8.346;2023-03-23T06:34:03;8.03;;;5.30;;
1977;SDS011;989;53.016;8.346;2023-03-23T06:36:29;15.53;;;5.30;;
1977;SDS011;989;53.016;8.346;2023-03-23T06:38:56;7.20;;;4.90;;
1977;SDS011;989;53.016;8.346;2023-03-23T06:41:22;9.23;;;5.70;;
1977;SDS011;989;53.016;8.346;2023-03-23T06:43:48;8.87;;;5.20;;
1977;SDS011;989;53.016;8.346;2023-03-23T06:46:14;9.03;;;5.20;;
1977;SDS011;989;53.016;8.346;2023-03-23T06:48:40;11.00;;;6.10;;
1977;SDS011;989;53.016;8.346;2023-03-23T06:51:06;7.57;;;5.33;;
1977;SDS011;989;53.016;8.346;2023-03-23T06:53:33;9.30;;;5.80;;
1977;SDS011;989;53.016;8.346;2023-03-23T06:55:59;8.57;;;5.60;;
1977;SDS011;989;53.016;8.346;2023-03-23T06:58:25;7.80;;;4.53;;
1977;SDS011;989;53.016;8.346;2023-03-23T07:00:58;11.60;;;5.10;;
1977;SDS011;989;53.016;8.346;2023-03-23T07:03:24;9.50;;;4.47;;
1977;SDS011;989;53.016;8.346;2023-03-23T07:05:51;6.90;;;4.90;;
1977;SDS011;989;53.016;8.346;2023-03-23T07:08:17;7.97;;;4.73;;
1977;SDS011;989;53.016;8.346;2023-03-23T07:10:43;1.00;;;0.40;;
1977;SDS011;989;53.016;8.346;2023-03-23T07:13:09;1.00;;;0.37;;
1977;SDS011;989;53.016;8.346;2023-03-23T07:15:35;1.00;;;0.40;;
1977;SDS011;989;53.016;8.346;2023-03-23T07:18:02;1.00;;;0.40;;
1977;SDS011;989;53.016;8.346;2023-03-23T07:20:28;1.00;;;0.40;;
1977;SDS011;989;53.016;8.346;2023-03-23T07:22:54;1.00;;;0.40;;
1977;SDS011;989;53.016;8.346;2023-03-23T07:25:20;1.00;;;0.30;;
1977;SDS011;989;53.016;8.346;2023-03-23T07:27:46;1.00;;;0.40;;
1977;SDS011;989;53.016;8.346;2023-03-23T07:30:12;0.97;;;0.40;;
1977;SDS011;989;53.016;8.346;2023-03-23T07:32:39;1.00;;;0.40;;
1977;SDS011;989;53.016;8.346;2023-03-23T07:35:05;1.00;;;0.40;;
1977;SDS011;989;53.016;8.346;2023-03-23T07:37:32;0.97;;;0.40;;
1977;SDS011;989;53.016;8.346;2023-03-23T07:39:58;1.00;;;0.40;;
1977;SDS011;989;53.016;8.346;2023-03-23T07:42:24;1.00;;;0.40;;
1977;SDS011;989;53.016;8.346;2023-03-23T07:44:50;1.00;;;0.40;;
1977;SDS011;989;53.016;8.346;2023-03-23T07:47:16;1.00;;;0.40;;
1977;SDS011;989;53.016;8.346;2023-03-23T07:49:43;1.00;;;0.40;;
1977;SDS011;989;53.016;8.346;2023-03-23T07:52:09;1.00;;;0.40;;
1977;SDS011;989;53.016;8.346;2023-03-23T07:54:36;1.00;;;0.40;;
1977;SDS011;989;53.016;8.346;2023-03-23T07:57:02;1.00;;;0.40;;
1977;SDS011;989;53.016;8.346;2023-03-23T07:59:28;1.00;;;0.40;;
1977;SDS011;989;53.016;8.346;2023-03-23T08:01:54;1.00;;;0.40;;
1977;SDS011;989;53.016;8.346;2023-03-23T08:04:22;1.00;;;0.40;;
1977;SDS011;989;53.016;8.346;2023-03-23T08:06:48;1.00;;;0.40;;
1977;SDS011;989;53.016;8.346;2023-03-23T08:09:14;1.57;;;0.40;;
1977;SDS011;989;53.016;8.346;2023-03-23T08:11:40;1.00;;;0.40;;
1977;SDS011;989;53.016;8.346;2023-03-23T08:14:07;1.00;;;0.40;;
1977;SDS011;989;53.016;8.346;2023-03-23T08:16:33;1.00;;;0.40;;
1977;SDS011;989;53.016;8.346;2023-03-23T08:18:59;1.00;;;0.40;;
1977;SDS011;989;53.016;8.346;2023-03-23T08:21:25;1.00;;;0.40;;
1977;SDS011;989;53.016;8.346;2023-03-23T08:23:51;1.00;;;0.40;;
1977;SDS011;989;53.016;8.346;2023-03-23T08:26:17;1.00;;;0.40;;
1977;SDS011;989;53.016;8.346;2023-03-23T08:28:43;1.00;;;0.40;;
1977;SDS011;989;53.016;8.346;2023-03-23T08:31:12;1.00;;;0.40;;
1977;SDS011;989;53.016;8.346;2023-03-23T08:33:38;1.00;;;0.40;;
1977;SDS011;989;53.016;8.346;2023-03-23T08:36:06;1.00;;;0.40;;
1977;SDS011;989;53.016;8.346;2023-03-23T08:38:32;1.00;;;0.40;;
1977;SDS011;989;53.016;8.346;2023-03-23T08:41:00;1.00;;;0.40;;
1977;SDS011;989;53.016;8.346;2023-03-23T08:43:27;1.00;;;0.50;;
1977;SDS011;989;53.016;8.346;2023-03-23T08:45:53;1.00;;;0.40;;
1977;SDS011;989;53.016;8.346;2023-03-23T08:48:19;1.00;;;0.40;;
1977;SDS011;989;53.016;8.346;2023-03-23T08:50:46;1.00;;;0.40;;
1977;SDS011;989;53.016;8.346;2023-03-23T08:53:12;1.00;;;0.40;;
1977;SDS011;989;53.016;8.346;2023-03-23T08:55:38;1.00;;;0.40;;
1977;SDS011;989;53.016;8.346;2023-03-23T08:58:04;1.00;;;0.40;;
1977;SDS011;989;53.016;8.346;2023-03-23T09:00:31;1.00;;;0.40;;
1977;SDS011;989;53.016;8.346;2023-03-23T09:02:57;1.00;;;0.40;;
1977;SDS011;989;53.016;8.346;2023-03-23T09:05:24;1.00;;;0.40;;
1977;SDS011;989;53.016;8.346;2023-03-23T09:07:52;1.00;;;0.40;;
1977;SDS011;989;53.016;8.346;2023-03-23T09:10:18;1.00;;;0.30;;
1977;SDS011;989;53.016;8.346;2023-03-23T09:12:45;1.07;;;0.40;;
1977;SDS011;989;53.016;8.346;2023-03-23T09:15:13;1.00;;;0.40;;
1977;SDS011;989;53.016;8.346;2023-03-23T09:17:49;1.10;;;0.40;;
1977;SDS011;989;53.016;8.346;2023-03-23T09:20:18;1.00;;;0.40;;
1977;SDS011;989;53.016;8.346;2023-03-23T09:22:46;1.07;;;0.40;;
1977;SDS011;989;53.016;8.346;2023-03-23T09:25:13;1.10;;;0.40;;
1977;SDS011;989;53.016;8.346;2023-03-23T09:27:40;1.10;;;0.40;;
1977;SDS011;989;53.016;8.346;2023-03-23T09:30:08;1.10;;;0.40;;
1977;SDS011;989;53.016;8.346;2023-03-23T09:32:35;1.10;;;0.40;;
1977;SDS011;989;53.016;8.346;2023-03-23T09:35:01;1.10;;;0.40;;
1977;SDS011;989;53.016;8.346;2023-03-23T09:37:28;1.10;;;0.40;;
1977;SDS011;989;53.016;8.346;2023-03-23T09:39:54;1.10;;;0.40;;
1977;SDS011;989;53.016;8.346;2023-03-23T09:42:24;1.10;;;0.40;;
1977;SDS011;989;53.016;8.346;2023-03-23T09:45:00;1.10;;;0.50;;
1977;SDS011;989;53.016;8.346;2023-03-23T09:50:02;1.10;;;0.50;;
1977;SDS011;989;53.016;8.346;2023-03-23T09:52:36;1.10;;;0.40;;
1977;SDS011;989;53.016;8.346;2023-03-23T09:55:03;1.10;;;0.40;;
1977;SDS011;989;53.016;8.346;2023-03-23T09:57:34;1.10;;;0.40;;
1977;SDS011;989;53.016;8.346;2023-03-23T10:05:31;1.10;;;0.40;;
1977;SDS011;989;53.016;8.346;2023-03-23T10:07:58;1.10;;;0.40;;
1977;SDS011;989;53.016;8.346;2023-03-23T10:10:29;1.10;;;0.40;;
1977;SDS011;989;53.016;8.346;2023-03-23T10:12:58;1.10;;;0.50;;
1977;SDS011;989;53.016;8.346;2023-03-23T10:15:27;1.10;;;0.40;;
1977;SDS011;989;53.016;8.346;2023-03-23T10:17:57;1.10;;;0.40;;
1977;SDS011;989;53.016;8.346;2023-03-23T10:22:57;1.10;;;0.40;;
1977;SDS011;989;53.016;8.346;2023-03-23T10:25:26;1.10;;;0.40;;
1977;SDS011;989;53.016;8.346;2023-03-23T10:28:04;1.10;;;0.40;;
1977;SDS011;989;53.016;8.346;2023-03-23T10:30:40;1.10;;;0.40;;
1977;SDS011;989;53.016;8.346;2023-03-23T10:38:33;1.10;;;0.40;;
1977;SDS011;989;53.016;8.346;2023-03-23T10:41:02;1.10;;;0.40;;
1977;SDS011;989;53.016;8.346;2023-03-23T10:43:30;1.10;;;0.40;;
1977;SDS011;989;53.016;8.346;2023-03-23T10:46:05;1.10;;;0.40;;
1977;SDS011;989;53.016;8.346;2023-03-23T10:48:37;1.10;;;0.40;;
1977;SDS011;989;53.016;8.346;2023-03-23T10:51:05;1.10;;;0.40;;
1977;SDS011;989;53.016;8.346;2023-03-23T10:53:34;1.10;;;0.40;;
1977;SDS011;989;53.016;8.346;2023-03-23T10:56:02;1.10;;;0.40;;
1977;SDS011;989;53.016;8.346;2023-03-23T11:00:56;1.10;;;0.43;;
1977;SDS011;989;53.016;8.346;2023-03-23T11:03:24;1.10;;;0.40;;
1977;SDS011;989;53.016;8.346;2023-03-23T11:06:01;1.10;;;0.40;;
1977;SDS011;989;53.016;8.346;2023-03-23T11:09:14;1.10;;;0.50;;
1977;SDS011;989;53.016;8.346;2023-03-23T11:11:16;1.10;;;0.40;;
1977;SDS011;989;53.016;8.346;2023-03-23T11:13:43;1.20;;;0.60;;
1977;SDS011;989;53.016;8.346;2023-03-23T11:16:09;1.10;;;0.40;;
1977;SDS011;989;53.016;8.346;2023-03-23T11:18:39;1.10;;;0.40;;
1977;SDS011;989;53.016;8.346;2023-03-23T11:21:06;1.10;;;0.40;;
1977;SDS011;989;53.016;8.346;2023-03-23T11:23:38;1.10;;;0.40;;
1977;SDS011;989;53.016;8.346;2023-03-23T11:31:41;1.10;;;0.40;;
1977;SDS011;989;53.016;8.346;2023-03-23T11:36:53;1.10;;;0.40;;
1977;SDS011;989;53.016;8.346;2023-03-23T11:39:30;1.10;;;0.40;;
1977;SDS011;989;53.016;8.346;2023-03-23T11:41:58;1.10;;;0.40;;
1977;SDS011;989;53.016;8.346;2023-03-23T11:44:30;1.10;;;0.40;;
1977;SDS011;989;53.016;8.346;2023-03-23T11:52:39;1.10;;;0.40;;
1977;SDS011;989;53.016;8.346;2023-03-23T11:55:09;1.37;;;0.80;;
1977;SDS011;989;53.016;8.346;2023-03-23T11:57:35;1.10;;;0.40;;
1977;SDS011;989;53.016;8.346;2023-03-23T12:00:10;1.10;;;0.40;;
1977;SDS011;989;53.016;8.346;2023-03-23T12:02:43;1.10;;;0.40;;
1977;SDS011;989;53.016;8.346;2023-03-23T12:05:30;1.10;;;0.40;;
1977;SDS011;989;53.016;8.346;2023-03-23T12:10:39;5.60;;;2.40;;
1977;SDS011;989;53.016;8.346;2023-03-23T12:15:44;5.83;;;2.40;;
1977;SDS011;989;53.016;8.346;2023-03-23T12:18:15;4.13;;;2.00;;
1977;SDS011;989;53.016;8.346;2023-03-23T12:31:11;4.87;;;2.30;;
1977;SDS011;989;53.016;8.346;2023-03-23T12:33:42;11.73;;;2.10;;
1977;SDS011;989;53.016;8.346;2023-03-23T12:41:20;5.23;;;2.27;;
1977;SDS011;989;53.016;8.346;2023-03-23T12:43:50;11.23;;;1.60;;
1977;SDS011;989;53.016;8.346;2023-03-23T12:48:45;8.10;;;2.03;;
1977;SDS011;989;53.016;8.346;2023-03-23T12:53:46;8.23;;;2.10;;
1977;SDS011;989;53.016;8.346;2023-03-23T12:56:23;7.23;;;2.50;;
1977;SDS011;989;53.016;8.346;2023-03-23T12:58:51;6.93;;;2.50;;
1977;SDS011;989;53.016;8.346;2023-03-23T13:01:23;9.57;;;1.80;;
1977;SDS011;989;53.016;8.346;2023-03-23T13:03:56;10.00;;;2.13;;
1977;SDS011;989;53.016;8.346;2023-03-23T13:06:25;3.13;;;1.90;;
1977;SDS011;989;53.016;8.346;2023-03-23T13:11:37;6.70;;;1.20;;
1977;SDS011;989;53.016;8.346;2023-03-23T13:14:18;8.17;;;1.70;;
1977;SDS011;989;53.016;8.346;2023-03-23T13:19:24;5.73;;;2.00;;
1977;SDS011;989;53.016;8.346;2023-03-23T13:21:54;9.00;;;2.60;;
1977;SDS011;989;53.016;8.346;2023-03-23T13:24:22;6.77;;;1.87;;
1977;SDS011;989;53.016;8.346;2023-03-23T13:26:50;1.87;;;1.20;;
1977;SDS011;989;53.016;8.346;2023-03-23T13:29:20;3.70;;;0.97;;
1977;SDS011;989;53.016;8.346;2023-03-23T13:31:49;5.73;;;1.80;;
1977;SDS011;989;53.016;8.346;2023-03-23T13:34:16;2.60;;;1.47;;
1977;SDS011;989;53.016;8.346;2023-03-23T13:36:56;2.60;;;1.33;;
1977;SDS011;989;53.016;8.346;2023-03-23T13:44:24;1.10;;;0.40;;
1977;SDS011;989;53.016;8.346;2023-03-23T13:47:06;1.10;;;0.40;;
1977;SDS011;989;53.016;8.346;2023-03-23T13:49:33;1.00;;;0.40;;
1977;SDS011;989;53.016;8.346;2023-03-23T13:52:00;1.10;;;0.40;;
1977;SDS011;989;53.016;8.346;2023-03-23T13:54:42;1.00;;;0.40;;
1977;SDS011;989;53.016;8.346;2023-03-23T14:00:22;1.10;;;0.40;;
1977;SDS011;989;53.016;8.346;2023-03-23T14:02:50;1.10;;;0.40;;
1977;SDS011;989;53.016;8.346;2023-03-23T14:10:57;1.10;;;0.40;;
1977;SDS011;989;53.016;8.346;2023-03-23T14:18:56;1.37;;;0.80;;
1977;SDS011;989;53.016;8.346;2023-03-23T14:21:30;1.30;;;0.90;;
1977;SDS011;989;53.016;8.346;2023-03-23T14:24:02;1.30;;;0.90;;
1977;SDS011;989;53.016;8.346;2023-03-23T14:26:28;1.30;;;0.83;;
1977;SDS011;989;53.016;8.346;2023-03-23T14:28:54;1.40;;;1.10;;
1977;SDS011;989;53.016;8.346;2023-03-23T14:31:26;1.20;;;0.80;;
1977;SDS011;989;53.016;8.346;2023-03-23T14:33:53;1.30;;;0.90;;
1977;SDS011;989;53.016;8.346;2023-03-23T14:36:23;1.20;;;0.70;;
1977;SDS011;989;53.016;8.346;2023-03-23T14:39:18;1.20;;;0.70;;
1977;SDS011;989;53.016;8.346;2023-03-23T14:41:45;1.20;;;0.70;;
1977;SDS011;989;53.016;8.346;2023-03-23T14:44:19;1.30;;;0.73;;
1977;SDS011;989;53.016;8.346;2023-03-23T14:46:46;1.30;;;0.50;;
1977;SDS011;989;53.016;8.346;2023-03-23T14:49:14;1.20;;;0.50;;
1977;SDS011;989;53.016;8.346;2023-03-23T14:51:51;1.20;;;0.50;;
1977;SDS011;989;53.016;8.346;2023-03-23T14:54:21;1.17;;;0.50;;
1977;SDS011;989;53.016;8.346;2023-03-23T14:56:47;1.20;;;0.50;;
1977;SDS011;989;53.016;8.346;2023-03-23T14:59:13;1.10;;;0.40;;
1977;SDS011;989;53.016;8.346;2023-03-23T15:01:40;1.10;;;0.50;;
1977;SDS011;989;53.016;8.346;2023-03-23T15:04:13;1.10;;;0.40;;
1977;SDS011;989;53.016;8.346;2023-03-23T15:06:40;1.17;;;0.40;;
1977;SDS011;989;53.016;8.346;2023-03-23T15:09:13;1.10;;;0.50;;
1977;SDS011;989;53.016;8.346;2023-03-23T15:11:40;1.13;;;0.50;;
1977;SDS011;989;53.016;8.346;2023-03-23T15:14:16;1.10;;;0.40;;
1977;SDS011;989;53.016;8.346;2023-03-23T15:16:47;1.10;;;0.40;;
1977;SDS011;989;53.016;8.346;2023-03-23T15:19:21;1.10;;;0.43;;
1977;SDS011;989;53.016;8.346;2023-03-23T15:21:53;6.90;;;1.90;;
1977;SDS011;989;53.016;8.346;2023-03-23T15:24:27;5.00;;;1.83;;
1977;SDS011;989;53.016;8.346;2023-03-23T15:27:03;9.97;;;2.30;;
1977;SDS011;989;53.016;8.346;2023-03-23T15:29:45;9.20;;;1.87;;
1977;SDS011;989;53.016;8.346;2023-03-23T15:32:11;8.90;;;2.00;;
1977;SDS011;989;53.016;8.346;2023-03-23T15:34:37;4.73;;;1.93;;
1977;SDS011;989;53.016;8.346;2023-03-23T15:37:23;8.40;;;1.73;;
1977;SDS011;989;53.016;8.346;2023-03-23T15:39:50;3.40;;;1.77;;
1977;SDS011;989;53.016;8.346;2023-03-23T15:42:33;7.20;;;1.50;;
1977;SDS011;989;53.016;8.346;2023-03-23T15:47:33;8.20;;;1.60;;
1977;SDS011;989;53.016;8.346;2023-03-23T15:52:35;4.00;;;1.40;;
1977;SDS011;989;53.016;8.346;2023-03-23T15:55:01;2.23;;;1.07;;
1977;SDS011;989;53.016;8.346;2023-03-23T15:57:27;7.90;;;1.23;;
1977;SDS011;989;53.016;8.346;2023-03-23T15:59:53;2.73;;;1.00;;
1977;SDS011;989;53.016;8.346;2023-03-23T16:02:20;10.53;;;2.30;;
1977;SDS011;989;53.016;8.346;2023-03-23T16:04:47;4.63;;;1.47;;
1977;SDS011;989;53.016;8.346;2023-03-23T16:07:13;13.90;;;1.97;;
1977;SDS011;989;53.016;8.346;2023-03-23T16:09:40;4.10;;;1.30;;
1977;SDS011;989;53.016;8.346;2023-03-23T16:12:09;6.00;;;1.70;;
1977;SDS011;989;53.016;8.346;2023-03-23T16:14:37;2.93;;;1.47;;
1977;SDS011;989;53.016;8.346;2023-03-23T16:17:03;5.73;;;1.70;;
1977;SDS011;989;53.016;8.346;2023-03-23T16:19:29;6.80;;;1.80;;
1977;SDS011;989;53.016;8.346;2023-03-23T16:21:55;11.10;;;1.77;;
1977;SDS011;989;53.016;8.346;2023-03-23T16:24:21;5.03;;;1.80;;
1977;SDS011;989;53.016;8.346;2023-03-23T16:26:47;3.50;;;1.10;;
1977;SDS011;989;53.016;8.346;2023-03-23T16:29:15;9.33;;;1.93;;
1977;SDS011;989;53.016;8.346;2023-03-23T16:31:41;4.87;;;1.30;;
1977;SDS011;989;53.016;8.346;2023-03-23T16:34:07;13.07;;;2.17;;
1977;SDS011;989;53.016;8.346;2023-03-23T16:36:33;3.40;;;1.20;;
1977;SDS011;989;53.016;8.346;2023-03-23T16:38:59;7.33;;;1.43;;
1977;SDS011;989;53.016;8.346;2023-03-23T16:41:25;8.30;;;1.80;;
1977;SDS011;989;53.016;8.346;2023-03-23T16:43:51;3.90;;;1.70;;
1977;SDS011;989;53.016;8.346;2023-03-23T16:46:17;14.43;;;3.00;;
1977;SDS011;989;53.016;8.346;2023-03-23T16:48:43;7.70;;;1.50;;
1977;SDS011;989;53.016;8.346;2023-03-23T16:51:09;4.20;;;1.63;;
1977;SDS011;989;53.016;8.346;2023-03-23T16:53:36;4.33;;;1.40;;
1977;SDS011;989;53.016;8.346;2023-03-23T16:56:02;6.33;;;1.50;;
1977;SDS011;989;53.016;8.346;2023-03-23T16:58:28;3.53;;;1.13;;
1977;SDS011;989;53.016;8.346;2023-03-23T17:00:54;12.40;;;1.90;;
1977;SDS011;989;53.016;8.346;2023-03-23T17:03:20;7.53;;;1.70;;
1977;SDS011;989;53.016;8.346;2023-03-23T17:05:47;7.40;;;1.87;;
1977;SDS011;989;53.016;8.346;2023-03-23T17:08:14;3.97;;;1.23;;
1977;SDS011;989;53.016;8.346;2023-03-23T17:10:40;8.03;;;2.27;;
1977;SDS011;989;53.016;8.346;2023-03-23T17:13:06;4.00;;;1.40;;